Diane G — DIANEG — position and weather

sailwx.info

Track history (hours):
 
Tides and Currents Weather Stations Pressure Air Temp Water Temp Dewpoint Dewpoint Depression Visibility Wind Speed Wind Dir Waves Ship Positions

Diane G

Last reported at 2015-Feb-25 12:16 UTC. Time now 2015-Mar-01 08:28 UTC.
Position N 33°36' W 118°36'.

Length 35 m; draft 2.5 m.

Type: . MMSI: 369970281.

Date/timePositionNaut miles runAvg speedWind from/ knotsBaromVisibWave heightAir tempDewpointWater temp
2015-Feb-25 12:16N 33°36' W 118°36'10 8.2
2015-Feb-25 11:05N 33°30' W 118°28'5 8.0
2015-Feb-25 10:25N 33°26' W 118°23'8 8.7
2015-Feb-25 09:30N 33°21' W 118°16'8 8.9
2015-Feb-25 08:33N 33°15' W 118°09'8 8.3
2015-Feb-25 07:33N 33°09' W 118°02'8 8.1
2015-Feb-25 06:33N 33°03' W 117°55'8 8.1
2015-Feb-25 05:33N 32°60' W 117°47'8 8.2
2015-Feb-25 04:33N 32°55' W 117°39'8 8.2
2015-Feb-25 03:33N 32°49' W 117°31'9 8.5
2015-Feb-25 02:33N 32°43' W 117°24'10 9.1
2015-Feb-25 01:29N 32°37' W 117°15'16 2.2
2015-Feb-24 18:17N 32°46' W 117°30'6 8.6
2015-Feb-24 17:34N 32°50' W 117°36'9 8.5
2015-Feb-24 16:34N 32°56' W 117°43'  
Track history (hours):
 
Tides and Currents Weather Stations Pressure Air Temp Water Temp Dewpoint Dewpoint Depression Visibility Wind Speed Wind Dir Waves Ship Positions

Diane G

Last reported at 2015-Feb-25 12:16 UTC. Time now 2015-Mar-01 08:28 UTC.
Position N 33°36' W 118°36'.

Length 35 m; draft 2.5 m.

Type: . MMSI: 369970281.

Date/timePositionNaut miles runAvg speedWind from/ knotsBaromVisibWave heightAir tempDewpointWater temp
2015-Feb-25 12:16N 33°36' W 118°36'10 8.2
2015-Feb-25 11:05N 33°30' W 118°28'5 8.0
2015-Feb-25 10:25N 33°26' W 118°23'8 8.7
2015-Feb-25 09:30N 33°21' W 118°16'8 8.9
2015-Feb-25 08:33N 33°15' W 118°09'8 8.3
2015-Feb-25 07:33N 33°09' W 118°02'8 8.1
2015-Feb-25 06:33N 33°03' W 117°55'8 8.1
2015-Feb-25 05:33N 32°60' W 117°47'8 8.2
2015-Feb-25 04:33N 32°55' W 117°39'8 8.2
2015-Feb-25 03:33N 32°49' W 117°31'9 8.5
2015-Feb-25 02:33N 32°43' W 117°24'10 9.1
2015-Feb-25 01:29N 32°37' W 117°15'16 2.2
2015-Feb-24 18:17N 32°46' W 117°30'6 8.6
2015-Feb-24 17:34N 32°50' W 117°36'9 8.5
2015-Feb-24 16:34N 32°56' W 117°43'  

Dump ship's entire track history